createdAt,value
2023-10-22T00:00:23.572Z,12.40
2023-10-22T00:02:50.523Z,12.40
2023-10-22T00:05:17.410Z,12.40
2023-10-22T00:07:44.338Z,12.40
2023-10-22T00:10:11.175Z,12.40
2023-10-22T00:12:37.997Z,12.30
2023-10-22T00:15:05.412Z,12.20
2023-10-22T00:17:32.335Z,12.20
2023-10-22T00:19:59.167Z,12.20
2023-10-22T00:22:25.952Z,12.20
2023-10-22T00:24:52.801Z,12.20
2023-10-22T00:27:19.633Z,12.20
2023-10-22T00:29:46.525Z,12.20
2023-10-22T00:32:13.347Z,12.30
2023-10-22T00:34:40.410Z,12.30
2023-10-22T00:37:07.503Z,12.30
2023-10-22T00:39:34.372Z,12.20
2023-10-22T00:42:01.195Z,12.30
2023-10-22T00:44:28.874Z,12.30
2023-10-22T00:46:56.238Z,12.30
2023-10-22T00:49:23.719Z,12.30
2023-10-22T00:51:51.354Z,12.30
2023-10-22T00:54:19.755Z,12.40
2023-10-22T00:56:47.546Z,12.30
2023-10-22T00:59:15.351Z,12.30
2023-10-22T01:01:43.755Z,12.30
2023-10-22T01:04:11.043Z,12.20
2023-10-22T01:06:38.584Z,12.10
2023-10-22T01:09:07.485Z,12.10
2023-10-22T01:11:35.129Z,12.00
2023-10-22T01:14:02.018Z,12.00
2023-10-22T01:16:29.169Z,11.90
2023-10-22T01:18:55.992Z,11.90
2023-10-22T01:21:26.090Z,11.80
2023-10-22T01:23:53.022Z,11.70
2023-10-22T01:26:19.929Z,11.70
2023-10-22T01:28:46.931Z,11.60
2023-10-22T01:31:17.801Z,11.60
2023-10-22T01:33:45.276Z,11.60
2023-10-22T01:36:12.311Z,11.60
2023-10-22T01:38:39.423Z,11.60
2023-10-22T01:41:10.126Z,11.70
2023-10-22T01:43:37.139Z,11.70
2023-10-22T01:46:04.125Z,11.70
2023-10-22T01:48:31.211Z,11.70
2023-10-22T01:50:58.243Z,11.70
2023-10-22T01:53:25.889Z,11.70
2023-10-22T01:55:52.731Z,11.70
2023-10-22T01:58:19.544Z,11.70
2023-10-22T02:00:46.431Z,11.70
2023-10-22T02:03:13.339Z,11.70
2023-10-22T02:05:40.336Z,11.70
2023-10-22T02:08:07.445Z,11.70
2023-10-22T02:10:34.832Z,11.70
2023-10-22T02:13:01.716Z,11.70
2023-10-22T02:15:28.655Z,11.70
2023-10-22T02:17:55.679Z,11.80
2023-10-22T02:20:22.995Z,11.80
2023-10-22T02:22:49.900Z,11.80
2023-10-22T02:25:16.754Z,11.80
2023-10-22T02:27:43.649Z,11.80
2023-10-22T02:30:11.023Z,11.80
2023-10-22T02:32:38.056Z,11.80
2023-10-22T02:35:05.743Z,11.80
2023-10-22T02:37:32.658Z,11.90
2023-10-22T02:40:02.020Z,11.90
2023-10-22T02:42:28.887Z,11.90
2023-10-22T02:44:55.745Z,11.90
2023-10-22T02:47:22.874Z,11.90
2023-10-22T02:49:50.001Z,12.00
2023-10-22T02:52:16.872Z,12.00
2023-10-22T02:54:43.702Z,12.00
2023-10-22T02:57:10.545Z,12.00
2023-10-22T02:59:37.455Z,12.00
2023-10-22T03:02:04.522Z,12.00
2023-10-22T03:04:31.420Z,12.00
2023-10-22T03:06:58.565Z,12.00
2023-10-22T03:09:25.745Z,12.00
2023-10-22T03:11:52.703Z,12.00
2023-10-22T03:14:21.756Z,11.90
2023-10-22T03:16:49.130Z,12.00
2023-10-22T03:19:18.251Z,12.00
2023-10-22T03:21:45.215Z,11.90
2023-10-22T03:24:13.831Z,11.90
2023-10-22T03:26:40.921Z,11.90
2023-10-22T03:29:08.145Z,11.90
2023-10-22T03:31:35.029Z,11.90
2023-10-22T03:34:01.941Z,11.80
2023-10-22T03:36:28.898Z,11.80
2023-10-22T03:38:55.906Z,11.80
2023-10-22T03:41:22.880Z,11.80
2023-10-22T03:43:50.406Z,11.80
2023-10-22T03:46:17.263Z,11.80
2023-10-22T03:48:44.423Z,11.80
2023-10-22T03:51:13.931Z,11.80
2023-10-22T03:53:41.161Z,11.80
2023-10-22T03:56:08.600Z,11.80
2023-10-22T03:58:35.543Z,11.90
2023-10-22T04:01:02.889Z,11.80
2023-10-22T04:03:29.738Z,11.90
2023-10-22T04:06:00.031Z,11.90
2023-10-22T04:08:27.399Z,11.90
2023-10-22T04:10:54.576Z,12.00
2023-10-22T04:13:21.978Z,12.00
2023-10-22T04:15:49.561Z,12.00
2023-10-22T04:18:18.648Z,12.00
2023-10-22T04:20:45.848Z,12.00
2023-10-22T04:23:12.750Z,12.00
2023-10-22T04:25:45.608Z,12.00
2023-10-22T04:28:13.198Z,12.00
2023-10-22T04:30:40.789Z,12.00
2023-10-22T04:33:09.285Z,11.90
2023-10-22T04:35:36.982Z,11.90
2023-10-22T04:38:04.126Z,11.90
2023-10-22T04:40:35.232Z,11.90
2023-10-22T04:43:02.422Z,11.90
2023-10-22T04:45:29.246Z,11.90
2023-10-22T04:47:57.039Z,11.90
2023-10-22T04:50:25.714Z,11.90
2023-10-22T04:52:53.870Z,11.90
2023-10-22T04:55:20.899Z,11.90
2023-10-22T04:57:47.838Z,11.80
2023-10-22T05:00:15.386Z,11.80
2023-10-22T05:02:42.714Z,11.80
2023-10-22T05:05:09.694Z,11.80
2023-10-22T05:07:36.493Z,11.80
2023-10-22T05:10:03.366Z,11.80
2023-10-22T05:12:30.274Z,11.80
2023-10-22T05:14:57.160Z,11.80
2023-10-22T05:17:25.763Z,11.80
2023-10-22T05:19:52.746Z,11.80
2023-10-22T05:22:20.669Z,11.80
2023-10-22T05:24:50.759Z,11.80
2023-10-22T05:27:18.711Z,11.80
2023-10-22T05:29:47.874Z,11.80
2023-10-22T05:32:16.132Z,11.80
2023-10-22T05:34:43.439Z,11.80
2023-10-22T05:37:10.510Z,11.80
2023-10-22T05:39:39.978Z,11.70
2023-10-22T05:42:07.493Z,11.70
2023-10-22T05:44:38.338Z,11.70
2023-10-22T05:47:05.811Z,11.70
2023-10-22T05:49:32.696Z,11.70
2023-10-22T05:51:59.606Z,11.80
2023-10-22T05:54:26.535Z,11.80
2023-10-22T05:56:53.470Z,11.70
2023-10-22T05:59:20.390Z,11.70
2023-10-22T06:01:47.202Z,11.70
2023-10-22T06:04:14.168Z,11.70
2023-10-22T06:06:41.113Z,11.70
2023-10-22T06:09:08.177Z,11.70
2023-10-22T06:11:35.273Z,11.70
2023-10-22T06:14:03.926Z,11.70
2023-10-22T06:16:32.680Z,11.70
2023-10-22T06:19:00.194Z,11.70
2023-10-22T06:21:27.008Z,11.70
2023-10-22T06:23:53.911Z,11.70
2023-10-22T06:26:20.885Z,11.70
2023-10-22T06:28:49.104Z,11.80
2023-10-22T06:31:15.976Z,11.80
2023-10-22T06:33:43.674Z,11.80
2023-10-22T06:36:19.115Z,11.80
2023-10-22T06:38:48.055Z,11.70
2023-10-22T06:41:28.050Z,11.80
2023-10-22T06:43:54.955Z,11.70
2023-10-22T06:46:22.334Z,11.70
2023-10-22T06:48:49.816Z,11.70
2023-10-22T06:51:17.798Z,11.70
2023-10-22T06:53:46.386Z,11.80
2023-10-22T06:56:13.655Z,11.80
2023-10-22T06:58:40.798Z,11.80
2023-10-22T07:01:12.189Z,11.70
2023-10-22T07:03:42.849Z,11.70
2023-10-22T07:06:10.030Z,11.70
2023-10-22T07:08:37.062Z,11.60
2023-10-22T07:11:04.187Z,11.70
2023-10-22T07:13:31.062Z,11.70
2023-10-22T07:15:58.398Z,11.70
2023-10-22T07:18:25.363Z,11.70
2023-10-22T07:20:52.342Z,11.70
2023-10-22T07:23:19.273Z,11.70
2023-10-22T07:25:47.074Z,11.80
2023-10-22T07:28:16.975Z,11.80
2023-10-22T07:30:50.614Z,11.70
2023-10-22T07:33:18.414Z,11.70
2023-10-22T07:35:55.735Z,11.80
2023-10-22T07:38:23.841Z,11.80
2023-10-22T07:40:51.578Z,11.80
2023-10-22T07:43:18.394Z,11.80
2023-10-22T07:45:46.438Z,11.80
2023-10-22T07:48:13.346Z,11.80
2023-10-22T07:50:40.237Z,11.80
2023-10-22T07:53:07.141Z,11.80
2023-10-22T07:55:35.021Z,11.90
2023-10-22T07:58:02.052Z,11.90
2023-10-22T08:00:28.934Z,11.90
2023-10-22T08:02:58.235Z,11.90
2023-10-22T08:05:25.160Z,11.90
2023-10-22T08:07:52.277Z,11.90
2023-10-22T08:10:19.104Z,12.00
2023-10-22T08:12:45.990Z,12.00
2023-10-22T08:15:13.173Z,12.10
2023-10-22T08:17:40.021Z,12.10
2023-10-22T08:20:07.630Z,12.20
2023-10-22T08:22:34.404Z,12.20
2023-10-22T08:25:01.183Z,12.20
2023-10-22T08:27:27.990Z,12.30
2023-10-22T08:29:55.994Z,12.40
2023-10-22T08:32:23.015Z,12.50
2023-10-22T08:34:49.984Z,12.60
2023-10-22T08:37:17.501Z,12.60
2023-10-22T08:39:44.411Z,12.60
2023-10-22T08:42:18.193Z,12.60
2023-10-22T08:44:47.593Z,12.70
2023-10-22T08:47:14.639Z,12.80
2023-10-22T08:49:41.959Z,12.90
2023-10-22T08:52:12.737Z,13.10
2023-10-22T08:54:40.131Z,13.10
2023-10-22T08:57:07.338Z,13.20
2023-10-22T08:59:39.384Z,13.20
2023-10-22T09:02:10.325Z,13.30
2023-10-22T09:04:37.821Z,13.20
2023-10-22T09:07:05.188Z,13.10
2023-10-22T09:09:39.330Z,13.10
2023-10-22T09:12:11.858Z,13.10
2023-10-22T09:14:39.104Z,13.00
2023-10-22T09:17:19.854Z,13.00
2023-10-22T09:19:49.047Z,13.00
2023-10-22T09:22:26.089Z,13.00
2023-10-22T09:24:57.998Z,13.10
2023-10-22T09:27:28.505Z,13.00
2023-10-22T09:29:56.068Z,13.10
2023-10-22T09:32:23.337Z,13.10
2023-10-22T09:34:50.273Z,13.10
2023-10-22T09:37:17.503Z,13.00
2023-10-22T09:39:45.445Z,12.90
2023-10-22T09:42:17.333Z,12.90
2023-10-22T09:44:46.050Z,12.90
2023-10-22T09:47:21.569Z,13.00
2023-10-22T09:49:54.310Z,13.10
2023-10-22T09:52:25.168Z,13.10
2023-10-22T09:54:55.358Z,13.10
2023-10-22T09:57:30.158Z,13.10
2023-10-22T10:00:02.948Z,13.20
2023-10-22T10:02:30.271Z,13.30
2023-10-22T10:04:58.747Z,13.30
2023-10-22T10:07:27.150Z,13.40
2023-10-22T10:09:56.926Z,13.40
2023-10-22T10:12:26.349Z,13.40
2023-10-22T10:14:53.415Z,13.40
2023-10-22T10:17:21.092Z,13.40
2023-10-22T10:19:52.760Z,13.50
2023-10-22T10:22:39.160Z,13.60
2023-10-22T10:25:32.294Z,13.70
2023-10-22T10:28:17.540Z,13.80
2023-10-22T10:30:45.236Z,13.90
2023-10-22T10:33:16.999Z,13.90
2023-10-22T10:35:49.440Z,13.90
2023-10-22T10:38:16.788Z,14.00
2023-10-22T10:40:49.044Z,14.10
2023-10-22T10:43:16.388Z,14.20
2023-10-22T10:46:20.874Z,14.10
2023-10-22T10:48:51.066Z,14.10
2023-10-22T10:51:19.424Z,14.20
2023-10-22T10:54:05.216Z,14.20
2023-10-22T10:56:51.605Z,14.20
2023-10-22T10:59:40.778Z,14.20
2023-10-22T11:02:13.517Z,14.20
2023-10-22T11:04:47.021Z,14.10
2023-10-22T11:09:44.266Z,14.30
2023-10-22T11:12:11.122Z,14.20
2023-10-22T11:14:39.463Z,14.20
2023-10-22T11:17:07.456Z,14.20
2023-10-22T11:19:34.928Z,14.10
2023-10-22T11:22:02.393Z,14.10
2023-10-22T11:24:37.045Z,14.20
2023-10-22T11:27:06.042Z,14.00
2023-10-22T11:29:43.476Z,14.00
2023-10-22T11:32:15.009Z,14.00
2023-10-22T11:34:53.076Z,13.90
2023-10-22T11:37:30.468Z,14.10
2023-10-22T11:39:57.839Z,14.20
2023-10-22T11:42:34.371Z,14.30
2023-10-22T11:45:01.417Z,14.40
2023-10-22T11:47:31.547Z,14.50
2023-10-22T11:49:59.510Z,14.60
2023-10-22T11:52:49.472Z,14.50
2023-10-22T11:55:32.706Z,14.60
2023-10-22T11:58:02.131Z,14.30
2023-10-22T12:00:29.089Z,14.30
2023-10-22T12:02:56.126Z,14.20
2023-10-22T12:05:24.491Z,14.20
2023-10-22T12:07:51.309Z,14.20
2023-10-22T12:10:19.224Z,14.10
2023-10-22T12:12:46.363Z,14.10
2023-10-22T12:15:14.153Z,14.10
2023-10-22T12:17:41.242Z,14.00
2023-10-22T12:20:09.367Z,14.00
2023-10-22T12:22:36.356Z,13.90
2023-10-22T12:25:05.360Z,13.90
2023-10-22T12:27:35.463Z,14.00
2023-10-22T12:30:04.285Z,14.10
2023-10-22T12:32:31.220Z,14.10
2023-10-22T12:34:58.364Z,14.10
2023-10-22T12:37:25.169Z,14.10
2023-10-22T12:39:52.174Z,14.10
2023-10-22T12:42:19.276Z,14.20
2023-10-22T12:44:46.694Z,14.20
2023-10-22T12:47:14.371Z,14.10
2023-10-22T12:49:44.967Z,14.10
2023-10-22T12:52:12.789Z,14.10
2023-10-22T12:54:42.776Z,14.00
2023-10-22T12:57:12.040Z,13.80
2023-10-22T12:59:40.629Z,13.80
2023-10-22T13:02:07.846Z,13.80
2023-10-22T13:04:34.880Z,13.70
2023-10-22T13:07:01.890Z,13.70
2023-10-22T13:09:29.029Z,13.50
2023-10-22T13:11:56.020Z,13.50
2023-10-22T13:14:23.362Z,13.50
2023-10-22T13:16:50.221Z,13.50
2023-10-22T13:19:17.249Z,13.40
2023-10-22T13:21:44.438Z,13.50
2023-10-22T13:24:11.849Z,13.50
2023-10-22T13:26:39.093Z,13.50
2023-10-22T13:29:08.753Z,13.50
2023-10-22T13:31:36.009Z,13.50
2023-10-22T13:34:04.037Z,13.50
2023-10-22T13:36:31.607Z,13.60
2023-10-22T13:38:58.539Z,13.70
2023-10-22T13:41:25.404Z,13.70
2023-10-22T13:43:52.302Z,13.70
2023-10-22T13:46:19.269Z,13.60
2023-10-22T13:48:46.555Z,13.50
2023-10-22T13:51:13.518Z,13.50
2023-10-22T13:53:40.466Z,13.40
2023-10-22T13:56:07.689Z,13.40
2023-10-22T13:58:34.539Z,13.50
2023-10-22T14:01:01.343Z,13.50
2023-10-22T14:03:28.491Z,13.50
2023-10-22T14:05:55.656Z,13.60
2023-10-22T14:08:23.932Z,13.60
2023-10-22T14:10:51.122Z,13.60
2023-10-22T14:13:19.663Z,13.60
2023-10-22T14:15:49.002Z,13.60
2023-10-22T14:18:16.627Z,13.60
2023-10-22T14:20:44.033Z,13.60
2023-10-22T14:23:10.822Z,13.50
2023-10-22T14:25:37.719Z,13.50
2023-10-22T14:28:05.466Z,13.60
2023-10-22T14:30:32.750Z,13.60
2023-10-22T14:33:00.065Z,13.60
2023-10-22T14:35:28.216Z,13.50
2023-10-22T14:37:55.355Z,13.50
2023-10-22T14:40:22.197Z,13.50
2023-10-22T14:42:49.022Z,13.50
2023-10-22T14:45:15.893Z,13.50
2023-10-22T14:47:42.811Z,13.60
2023-10-22T14:50:10.103Z,13.60
2023-10-22T14:52:37.124Z,13.60
2023-10-22T14:55:04.208Z,13.50
2023-10-22T14:57:31.031Z,13.60
2023-10-22T14:59:58.068Z,13.60
2023-10-22T15:02:24.956Z,13.60
2023-10-22T15:04:51.978Z,13.60
2023-10-22T15:07:20.405Z,13.50
2023-10-22T15:09:47.324Z,13.50
2023-10-22T15:12:14.176Z,13.50
2023-10-22T15:14:41.071Z,13.40
2023-10-22T15:17:07.926Z,13.40
2023-10-22T15:19:34.766Z,13.30
2023-10-22T15:22:01.691Z,13.30
2023-10-22T15:24:28.693Z,13.20
2023-10-22T15:26:58.493Z,13.20
2023-10-22T15:29:25.377Z,13.10
2023-10-22T15:31:53.150Z,13.10
2023-10-22T15:34:20.059Z,13.00
2023-10-22T15:36:46.940Z,13.00
2023-10-22T15:39:13.790Z,12.90
2023-10-22T15:41:40.640Z,12.90
2023-10-22T15:44:07.561Z,12.90
2023-10-22T15:46:34.473Z,12.90
2023-10-22T15:49:01.448Z,12.80
2023-10-22T15:51:31.088Z,12.80
2023-10-22T15:53:58.567Z,12.80
2023-10-22T15:56:25.469Z,12.80
2023-10-22T15:58:55.071Z,12.80
2023-10-22T16:01:22.022Z,12.70
2023-10-22T16:03:49.768Z,12.70
2023-10-22T16:06:16.666Z,12.70
2023-10-22T16:08:46.900Z,12.60
2023-10-22T16:11:13.764Z,12.60
2023-10-22T16:13:40.624Z,12.50
2023-10-22T16:16:07.735Z,12.50
2023-10-22T16:18:34.875Z,12.50
2023-10-22T16:21:01.922Z,12.50
2023-10-22T16:23:28.811Z,12.40
2023-10-22T16:25:55.703Z,12.40
2023-10-22T16:28:22.529Z,12.30
2023-10-22T16:30:49.751Z,12.30
2023-10-22T16:33:17.255Z,12.30
2023-10-22T16:35:44.343Z,12.30
2023-10-22T16:38:11.209Z,12.30
2023-10-22T16:40:39.979Z,12.30
2023-10-22T16:43:07.545Z,12.30
2023-10-22T16:45:35.008Z,12.30
2023-10-22T16:48:03.462Z,12.20
2023-10-22T16:50:31.231Z,12.20
2023-10-22T16:52:58.753Z,12.20
2023-10-22T16:55:25.997Z,12.20
2023-10-22T16:57:53.054Z,12.20
2023-10-22T17:00:20.469Z,12.20
2023-10-22T17:02:48.691Z,12.10
2023-10-22T17:05:16.222Z,12.10
2023-10-22T17:07:43.274Z,12.20
2023-10-22T17:10:11.987Z,12.20
2023-10-22T17:12:38.927Z,12.20
2023-10-22T17:15:07.411Z,12.20
2023-10-22T17:17:36.229Z,12.20
2023-10-22T17:20:04.839Z,12.20
2023-10-22T17:22:32.100Z,12.20
2023-10-22T17:24:58.971Z,12.20
2023-10-22T17:27:27.488Z,12.20
2023-10-22T17:29:56.014Z,12.20
2023-10-22T17:32:23.144Z,12.20
2023-10-22T17:34:50.103Z,12.30
2023-10-22T17:37:17.294Z,12.30
2023-10-22T17:39:44.631Z,12.20
2023-10-22T17:42:14.361Z,12.20
2023-10-22T17:44:43.909Z,12.20
2023-10-22T17:47:11.129Z,12.20
2023-10-22T17:49:43.453Z,12.20
2023-10-22T17:52:10.966Z,12.20
2023-10-22T17:54:38.197Z,12.20
2023-10-22T17:57:05.356Z,12.20
2023-10-22T17:59:32.987Z,12.20
2023-10-22T18:01:59.814Z,12.20
2023-10-22T18:04:28.581Z,12.10
2023-10-22T18:06:56.428Z,12.20
2023-10-22T18:09:23.403Z,12.10
2023-10-22T18:11:50.323Z,12.20
2023-10-22T18:14:18.826Z,12.20
2023-10-22T18:16:46.160Z,12.30
2023-10-22T18:19:18.491Z,12.20
2023-10-22T18:21:50.787Z,12.20
2023-10-22T18:24:18.809Z,12.20
2023-10-22T18:26:45.875Z,12.20
2023-10-22T18:29:12.802Z,12.20
2023-10-22T18:31:39.796Z,12.20
2023-10-22T18:34:06.721Z,12.20
2023-10-22T18:36:33.584Z,12.20
2023-10-22T18:39:02.470Z,12.10
2023-10-22T18:41:29.272Z,12.10
2023-10-22T18:43:56.228Z,12.10
2023-10-22T18:46:23.193Z,12.10
2023-10-22T18:48:51.079Z,12.00
2023-10-22T18:51:21.418Z,12.00
2023-10-22T18:53:48.890Z,12.00
2023-10-22T18:56:16.418Z,12.20
2023-10-22T18:58:43.549Z,12.00
2023-10-22T19:01:27.257Z,12.00
2023-10-22T19:03:59.882Z,11.90
2023-10-22T19:06:28.993Z,11.90
2023-10-22T19:08:58.036Z,11.80
2023-10-22T19:11:25.958Z,11.80
2023-10-22T19:13:55.730Z,11.70
2023-10-22T19:16:26.923Z,11.70
2023-10-22T19:18:57.691Z,11.70
2023-10-22T19:21:25.808Z,11.70
2023-10-22T19:23:53.784Z,11.70
2023-10-22T19:26:21.318Z,11.70
2023-10-22T19:28:48.421Z,11.70
2023-10-22T19:31:16.582Z,11.60
2023-10-22T19:33:44.253Z,11.60
2023-10-22T19:36:21.394Z,11.60
2023-10-22T19:38:48.422Z,11.60
2023-10-22T19:41:22.040Z,11.60
2023-10-22T19:43:48.988Z,11.60
2023-10-22T19:46:15.823Z,11.70
2023-10-22T19:48:44.576Z,11.70
2023-10-22T19:51:11.626Z,11.70
2023-10-22T19:53:38.600Z,11.70
2023-10-22T19:56:05.569Z,11.70
2023-10-22T19:58:32.410Z,11.70
2023-10-22T20:00:59.221Z,11.90
2023-10-22T20:03:26.180Z,11.80
2023-10-22T20:05:54.128Z,11.70
2023-10-22T20:08:21.053Z,11.70
2023-10-22T20:10:48.262Z,11.70
2023-10-22T20:13:15.181Z,11.70
2023-10-22T20:15:42.138Z,11.70
2023-10-22T20:18:09.865Z,11.70
2023-10-22T20:20:37.345Z,11.70
2023-10-22T20:23:04.227Z,11.70
2023-10-22T20:25:31.290Z,11.70
2023-10-22T20:27:59.574Z,11.60
2023-10-22T20:30:26.730Z,11.60
2023-10-22T20:32:53.652Z,11.60
2023-10-22T20:35:20.614Z,11.60
2023-10-22T20:37:47.682Z,11.60
2023-10-22T20:40:16.233Z,11.60
2023-10-22T20:42:43.397Z,11.60
2023-10-22T20:45:10.733Z,11.60
2023-10-22T20:47:37.591Z,11.60
2023-10-22T20:50:04.728Z,11.60
2023-10-22T20:52:31.600Z,11.60
2023-10-22T20:54:58.819Z,11.50
2023-10-22T20:57:26.040Z,11.50
2023-10-22T20:59:52.952Z,11.50
2023-10-22T21:02:19.758Z,11.50
2023-10-22T21:04:46.789Z,11.50
2023-10-22T21:07:13.719Z,11.50
2023-10-22T21:09:40.693Z,11.50
2023-10-22T21:12:08.127Z,11.50
2023-10-22T21:14:35.409Z,11.50
2023-10-22T21:17:02.355Z,11.40
2023-10-22T21:19:29.144Z,11.40
2023-10-22T21:21:56.926Z,11.40
2023-10-22T21:24:24.435Z,11.40
2023-10-22T21:26:52.690Z,11.40
2023-10-22T21:29:20.718Z,11.40
2023-10-22T21:31:47.638Z,11.40
2023-10-22T21:34:14.499Z,11.40
2023-10-22T21:36:41.407Z,11.40
2023-10-22T21:39:08.386Z,11.30
2023-10-22T21:41:35.226Z,11.20
2023-10-22T21:44:02.042Z,11.20
2023-10-22T21:46:29.187Z,11.10
2023-10-22T21:48:56.133Z,11.10
2023-10-22T21:51:23.081Z,11.10
2023-10-22T21:53:50.094Z,11.00
2023-10-22T21:56:16.858Z,11.00
2023-10-22T21:58:43.666Z,11.00
2023-10-22T22:01:10.620Z,11.10
2023-10-22T22:03:37.584Z,11.10
2023-10-22T22:06:04.528Z,11.10
2023-10-22T22:08:31.455Z,11.10
2023-10-22T22:10:58.596Z,11.10
2023-10-22T22:13:25.447Z,11.10
2023-10-22T22:15:52.382Z,11.10
2023-10-22T22:18:19.318Z,11.00
2023-10-22T22:20:46.237Z,11.00
2023-10-22T22:23:13.058Z,11.00
2023-10-22T22:25:45.098Z,11.10
2023-10-22T22:28:13.988Z,11.10
2023-10-22T22:30:41.137Z,11.00
2023-10-22T22:33:08.162Z,11.00
2023-10-22T22:35:35.016Z,11.00
2023-10-22T22:38:01.805Z,11.00
2023-10-22T22:40:28.620Z,11.00
2023-10-22T22:42:55.461Z,11.00
2023-10-22T22:45:22.237Z,11.00
2023-10-22T22:47:49.216Z,11.20
2023-10-22T22:50:16.124Z,11.00
2023-10-22T22:52:42.944Z,11.10
2023-10-22T22:55:10.180Z,11.20
2023-10-22T22:57:37.121Z,11.20
2023-10-22T23:00:05.582Z,11.20
2023-10-22T23:02:33.963Z,11.10
2023-10-22T23:05:01.196Z,11.00
2023-10-22T23:07:29.473Z,10.90
2023-10-22T23:09:56.386Z,11.00
2023-10-22T23:12:23.497Z,11.00
2023-10-22T23:14:50.595Z,10.90
2023-10-22T23:17:17.501Z,10.80
2023-10-22T23:19:44.438Z,10.80
2023-10-22T23:22:11.340Z,10.80
2023-10-22T23:24:38.863Z,10.80
2023-10-22T23:27:06.631Z,10.80
2023-10-22T23:29:33.728Z,10.80
2023-10-22T23:32:00.724Z,10.70
2023-10-22T23:34:27.598Z,10.80
2023-10-22T23:36:54.528Z,10.80
2023-10-22T23:39:21.464Z,10.80
2023-10-22T23:41:49.029Z,10.80
2023-10-22T23:44:16.200Z,10.80
2023-10-22T23:46:43.112Z,10.80
2023-10-22T23:49:10.133Z,10.70
2023-10-22T23:51:36.982Z,10.70
2023-10-22T23:54:03.860Z,10.70
2023-10-22T23:56:30.713Z,10.70
2023-10-22T23:58:57.566Z,10.70
